createdAt,value
2023-05-22T00:01:10.085Z,12.67
2023-05-22T00:03:38.437Z,12.93
2023-05-22T00:06:09.405Z,12.50
2023-05-22T00:08:37.569Z,11.97
2023-05-22T00:11:05.469Z,11.80
2023-05-22T00:13:33.312Z,11.40
2023-05-22T00:16:01.094Z,11.00
2023-05-22T00:18:28.852Z,11.00
2023-05-22T00:23:45.490Z,10.13
2023-05-22T00:26:15.576Z,11.43
2023-05-22T00:28:43.395Z,12.03
2023-05-22T00:31:11.218Z,11.10
2023-05-22T00:33:38.905Z,11.67
2023-05-22T00:36:08.032Z,10.80
2023-05-22T00:38:37.056Z,10.83
2023-05-22T00:41:06.207Z,10.97
2023-05-22T00:43:34.384Z,11.03
2023-05-22T00:46:02.378Z,10.50
2023-05-22T00:48:30.366Z,11.23
2023-05-22T00:51:00.164Z,11.00
2023-05-22T00:53:30.053Z,10.03
2023-05-22T00:55:58.663Z,10.50
2023-05-22T00:58:26.930Z,10.93
2023-05-22T01:00:55.564Z,10.03
2023-05-22T01:03:25.566Z,10.87
2023-05-22T01:05:53.451Z,10.37
2023-05-22T01:08:21.477Z,11.53
2023-05-22T01:10:54.171Z,10.20
2023-05-22T01:13:29.514Z,10.57
2023-05-22T01:16:05.940Z,10.47
2023-05-22T01:18:42.074Z,10.23
2023-05-22T01:21:17.640Z,10.17
2023-05-22T01:24:24.906Z,10.43
2023-05-22T01:27:15.558Z,10.30
2023-05-22T01:29:47.975Z,9.77
2023-05-22T01:32:20.466Z,9.77
2023-05-22T01:34:51.836Z,10.10
2023-05-22T01:37:21.751Z,10.40
2023-05-22T01:39:50.912Z,9.90
2023-05-22T01:42:18.947Z,10.37
2023-05-22T01:44:48.719Z,9.47
2023-05-22T01:47:17.336Z,9.80
2023-05-22T01:49:46.496Z,10.37
2023-05-22T01:52:21.912Z,9.53
2023-05-22T01:54:54.976Z,9.20
2023-05-22T01:57:30.532Z,9.50
2023-05-22T02:00:06.677Z,9.70
2023-05-22T02:02:38.170Z,9.83
2023-05-22T02:05:10.952Z,9.43
2023-05-22T02:07:41.621Z,9.40
2023-05-22T02:10:11.128Z,9.40
2023-05-22T02:12:39.918Z,9.67
2023-05-22T02:17:54.154Z,9.43
2023-05-22T02:20:22.236Z,8.60
2023-05-22T02:22:50.056Z,9.40
2023-05-22T02:25:18.389Z,9.40
2023-05-22T02:27:48.909Z,8.87
2023-05-22T02:33:05.307Z,8.10
2023-05-22T02:35:33.263Z,8.77
2023-05-22T02:38:00.984Z,9.40
2023-05-22T02:40:28.711Z,9.17
2023-05-22T02:42:56.451Z,8.73
2023-05-22T02:45:24.387Z,8.93
2023-05-22T02:47:52.225Z,9.17
2023-05-22T02:50:20.030Z,9.23
2023-05-22T02:52:48.789Z,8.70
2023-05-22T02:55:16.593Z,8.90
2023-05-22T02:57:44.330Z,9.07
2023-05-22T03:00:13.695Z,9.20
2023-05-22T03:02:42.142Z,9.47
2023-05-22T03:05:10.694Z,9.27
2023-05-22T03:07:39.368Z,9.03
2023-05-22T03:10:08.509Z,9.57
2023-05-22T03:12:36.288Z,9.70
2023-05-22T03:15:05.287Z,8.90
2023-05-22T03:17:33.163Z,9.10
2023-05-22T03:20:00.943Z,9.10
2023-05-22T03:25:17.130Z,8.90
2023-05-22T03:27:45.131Z,9.07
2023-05-22T03:30:14.900Z,9.07
2023-05-22T03:32:42.824Z,9.37
2023-05-22T03:35:12.407Z,8.20
2023-05-22T03:37:40.194Z,9.00
2023-05-22T03:40:11.068Z,8.70
2023-05-22T03:42:38.787Z,7.97
2023-05-22T03:45:09.143Z,8.07
2023-05-22T03:47:36.918Z,8.80
2023-05-22T03:50:05.640Z,9.43
2023-05-22T03:52:33.360Z,9.70
2023-05-22T03:55:01.249Z,9.37
2023-05-22T03:57:28.992Z,9.50
2023-05-22T03:59:56.715Z,9.30
2023-05-22T04:02:25.707Z,9.17
2023-05-22T04:04:53.700Z,9.37
2023-05-22T04:07:21.608Z,9.73
2023-05-22T04:09:49.495Z,8.87
2023-05-22T04:12:17.222Z,8.80
2023-05-22T04:14:45.188Z,9.10
2023-05-22T04:17:12.982Z,9.47
2023-05-22T04:19:40.700Z,9.03
2023-05-22T04:22:08.516Z,8.97
2023-05-22T04:24:39.130Z,9.27
2023-05-22T04:27:07.259Z,9.93
2023-05-22T04:29:36.564Z,9.00
2023-05-22T04:32:09.928Z,12.27
2023-05-22T04:34:37.747Z,11.50
2023-05-22T04:37:06.244Z,10.00
2023-05-22T04:39:34.146Z,9.83
2023-05-22T04:42:05.153Z,9.20
2023-05-22T04:47:21.687Z,9.80
2023-05-22T04:49:50.880Z,9.40
2023-05-22T04:52:18.624Z,9.70
2023-05-22T04:54:46.438Z,9.27
2023-05-22T04:57:14.359Z,9.77
2023-05-22T04:59:42.111Z,9.43
2023-05-22T05:02:10.236Z,9.73
2023-05-22T05:04:38.292Z,10.07
2023-05-22T05:07:06.340Z,9.70
2023-05-22T05:09:34.106Z,10.00
2023-05-22T05:12:02.149Z,10.67
2023-05-22T05:14:31.655Z,10.83
2023-05-22T05:16:59.495Z,10.20
2023-05-22T05:19:27.633Z,10.37
2023-05-22T05:21:55.536Z,10.30
2023-05-22T05:24:23.261Z,10.53
2023-05-22T05:26:51.794Z,10.20
2023-05-22T05:29:20.650Z,10.97
2023-05-22T05:31:48.725Z,10.17
2023-05-22T05:34:16.590Z,10.60
2023-05-22T05:36:44.919Z,10.03
2023-05-22T05:39:12.958Z,9.90
2023-05-22T05:41:40.869Z,10.73
2023-05-22T05:44:08.684Z,10.23
2023-05-22T05:46:36.787Z,10.70
2023-05-22T05:49:09.284Z,10.17
2023-05-22T05:51:37.230Z,11.07
2023-05-22T05:54:05.644Z,11.13
2023-05-22T05:56:33.703Z,10.83
2023-05-22T05:59:01.547Z,10.27
2023-05-22T06:01:32.256Z,10.90
2023-05-22T06:04:02.482Z,10.40
2023-05-22T06:06:35.072Z,11.13
2023-05-22T06:09:04.914Z,10.67
2023-05-22T06:11:32.980Z,11.23
2023-05-22T06:14:02.489Z,11.13
2023-05-22T06:16:30.581Z,11.57
2023-05-22T06:18:59.144Z,11.27
2023-05-22T06:21:27.014Z,12.03
2023-05-22T06:23:54.990Z,11.13
2023-05-22T06:26:22.868Z,11.83
2023-05-22T06:28:51.193Z,12.97
2023-05-22T06:31:19.171Z,13.07
2023-05-22T06:33:47.142Z,15.00
2023-05-22T06:36:15.474Z,13.83
2023-05-22T06:38:43.426Z,12.80
2023-05-22T06:41:11.768Z,12.67
2023-05-22T06:43:39.520Z,12.47
2023-05-22T06:46:07.482Z,13.30
2023-05-22T06:48:35.654Z,12.43
2023-05-22T06:51:03.988Z,12.10
2023-05-22T06:53:31.776Z,12.23
2023-05-22T06:58:46.501Z,12.73
2023-05-22T07:01:14.448Z,12.87
2023-05-22T07:03:42.262Z,13.43
2023-05-22T07:06:11.582Z,13.57
2023-05-22T07:11:28.548Z,13.30
2023-05-22T07:13:56.297Z,12.63
2023-05-22T07:16:25.063Z,12.97
2023-05-22T07:18:53.011Z,14.23
2023-05-22T07:21:23.070Z,14.07
2023-05-22T07:23:51.425Z,12.87
2023-05-22T07:26:19.277Z,13.60
2023-05-22T07:28:47.726Z,13.27
2023-05-22T07:31:15.724Z,13.10
2023-05-22T07:33:43.890Z,13.43
2023-05-22T07:36:11.912Z,12.47
2023-05-22T07:38:40.248Z,13.57
2023-05-22T07:41:08.273Z,13.40
2023-05-22T07:43:36.100Z,13.33
2023-05-22T07:46:05.420Z,14.07
2023-05-22T07:48:33.205Z,13.77
2023-05-22T07:51:03.101Z,13.60
2023-05-22T07:53:31.093Z,13.47
2023-05-22T07:55:59.229Z,14.80
2023-05-22T08:01:16.523Z,13.23
2023-05-22T08:03:44.656Z,13.37
2023-05-22T08:06:15.282Z,14.57
2023-05-22T08:08:43.696Z,14.37
2023-05-22T08:11:12.069Z,13.47
2023-05-22T08:13:40.194Z,15.20
2023-05-22T08:16:09.268Z,12.87
2023-05-22T08:18:37.409Z,13.97
2023-05-22T08:21:06.117Z,13.37
2023-05-22T08:23:35.605Z,13.60
2023-05-22T08:26:03.759Z,14.47
2023-05-22T08:28:31.634Z,12.90
2023-05-22T08:30:59.456Z,13.47
2023-05-22T08:33:27.568Z,13.10
2023-05-22T08:35:55.413Z,14.57
2023-05-22T08:38:23.264Z,14.20
2023-05-22T08:40:53.832Z,13.00
2023-05-22T08:43:22.021Z,14.43
2023-05-22T08:45:59.773Z,13.47
2023-05-22T08:48:31.171Z,14.70
2023-05-22T08:53:56.173Z,15.00
2023-05-22T08:56:27.061Z,14.63
2023-05-22T08:58:59.561Z,14.30
2023-05-22T09:01:29.591Z,16.07
2023-05-22T09:04:02.138Z,16.17
2023-05-22T09:06:31.250Z,15.17
2023-05-22T09:09:00.788Z,16.23
2023-05-22T09:11:28.643Z,15.70
2023-05-22T09:14:08.060Z,16.20
2023-05-22T09:16:44.610Z,16.27
2023-05-22T09:19:13.545Z,15.17
2023-05-22T09:21:41.665Z,16.77
2023-05-22T09:24:10.313Z,13.87
2023-05-22T09:26:39.585Z,15.60
2023-05-22T09:29:08.142Z,16.47
2023-05-22T09:31:42.366Z,14.97
2023-05-22T09:34:13.336Z,16.97
2023-05-22T09:36:41.435Z,16.73
2023-05-22T09:39:09.360Z,16.23
2023-05-22T09:41:38.824Z,16.60
2023-05-22T09:44:16.374Z,16.40
2023-05-22T09:46:46.445Z,17.00
2023-05-22T09:49:16.501Z,16.53
2023-05-22T09:51:47.375Z,17.23
2023-05-22T09:54:16.732Z,18.43
2023-05-22T09:56:48.211Z,17.30
2023-05-22T09:59:22.687Z,16.53
2023-05-22T10:01:51.495Z,17.20
2023-05-22T10:04:21.740Z,17.77
2023-05-22T10:06:52.884Z,17.17
2023-05-22T10:09:23.964Z,17.67
2023-05-22T10:11:56.446Z,18.13
2023-05-22T10:14:25.497Z,18.67
2023-05-22T10:16:56.174Z,19.00
2023-05-22T10:19:27.396Z,19.77
2023-05-22T10:21:58.271Z,19.70
2023-05-22T10:24:26.482Z,21.53
2023-05-22T10:26:55.297Z,20.77
2023-05-22T10:29:29.465Z,20.53
2023-05-22T10:32:06.402Z,18.87
2023-05-22T10:34:42.461Z,21.03
2023-05-22T10:37:27.606Z,20.73
2023-05-22T10:40:04.049Z,19.97
2023-05-22T10:42:32.352Z,20.20
2023-05-22T10:45:01.328Z,21.00
2023-05-22T10:47:29.159Z,20.80
2023-05-22T10:53:17.626Z,20.70
2023-05-22T10:55:48.409Z,21.50
2023-05-22T10:58:17.073Z,21.30
2023-05-22T11:00:45.312Z,21.57
2023-05-22T11:03:18.406Z,22.00
2023-05-22T11:05:53.116Z,21.03
2023-05-22T11:08:39.107Z,21.17
2023-05-22T11:11:16.281Z,21.37
2023-05-22T11:13:51.120Z,21.00
2023-05-22T11:16:19.813Z,19.13
2023-05-22T11:18:47.828Z,20.27
2023-05-22T11:21:16.155Z,18.97
2023-05-22T11:23:45.422Z,17.70
2023-05-22T11:26:24.786Z,19.50
2023-05-22T11:28:53.707Z,19.67
2023-05-22T11:31:25.718Z,18.97
2023-05-22T11:33:54.099Z,17.17
2023-05-22T11:36:23.190Z,16.57
2023-05-22T11:38:51.112Z,15.93
2023-05-22T11:41:19.100Z,17.03
2023-05-22T11:43:46.866Z,16.60
2023-05-22T11:46:15.176Z,17.07
2023-05-22T11:48:43.495Z,18.07
2023-05-22T11:53:58.032Z,15.53
2023-05-22T11:56:26.430Z,15.20
2023-05-22T11:58:54.239Z,14.73
2023-05-22T12:01:22.083Z,15.87
2023-05-22T12:03:49.976Z,15.40
2023-05-22T12:06:18.770Z,15.97
2023-05-22T12:08:47.043Z,14.73
2023-05-22T12:14:04.518Z,16.20
2023-05-22T12:16:36.254Z,17.97
2023-05-22T12:19:07.757Z,16.87
2023-05-22T12:21:36.219Z,16.10
2023-05-22T12:24:05.476Z,17.10
2023-05-22T12:26:34.043Z,15.53
2023-05-22T12:29:02.216Z,15.50
2023-05-22T12:31:35.747Z,15.67
2023-05-22T12:34:06.590Z,17.27
2023-05-22T12:36:37.603Z,16.23
2023-05-22T12:39:09.582Z,16.23
2023-05-22T12:41:37.418Z,17.00
2023-05-22T12:44:05.382Z,15.40
2023-05-22T12:46:34.029Z,15.43
2023-05-22T12:49:02.815Z,15.13
2023-05-22T12:51:31.930Z,13.90
2023-05-22T12:54:00.840Z,13.63
2023-05-22T12:56:29.184Z,13.80
2023-05-22T12:58:57.818Z,13.37
2023-05-22T13:01:26.174Z,13.13
2023-05-22T13:03:54.232Z,12.93
2023-05-22T13:06:22.207Z,14.67
2023-05-22T13:08:50.745Z,13.73
2023-05-22T13:11:19.423Z,13.53
2023-05-22T13:13:47.212Z,13.13
2023-05-22T13:16:15.133Z,13.67
2023-05-22T13:18:43.025Z,13.23
2023-05-22T13:21:11.998Z,13.47
2023-05-22T13:23:39.837Z,12.90
2023-05-22T13:26:07.915Z,13.60
2023-05-22T13:28:35.698Z,13.60
2023-05-22T13:31:03.613Z,13.97
2023-05-22T13:33:31.454Z,13.93
2023-05-22T13:35:59.453Z,13.60
2023-05-22T13:41:14.774Z,14.67
2023-05-22T13:43:42.542Z,14.30
2023-05-22T13:46:10.315Z,14.77
2023-05-22T13:48:38.188Z,14.70
2023-05-22T13:51:06.447Z,14.00
2023-05-22T13:53:34.724Z,14.13
2023-05-22T13:56:02.486Z,13.80
2023-05-22T13:58:30.220Z,15.10
2023-05-22T14:00:58.027Z,14.03
2023-05-22T14:03:26.047Z,14.17
2023-05-22T14:05:54.013Z,14.60
2023-05-22T14:08:21.845Z,15.73
2023-05-22T14:10:50.167Z,14.23
2023-05-22T14:16:05.598Z,14.27
2023-05-22T14:18:33.404Z,13.57
2023-05-22T14:21:02.695Z,13.83
2023-05-22T14:23:32.435Z,14.33
2023-05-22T14:26:00.310Z,14.23
2023-05-22T14:28:28.331Z,14.03
2023-05-22T14:30:56.958Z,14.30
2023-05-22T14:33:24.872Z,15.87
2023-05-22T14:35:53.446Z,16.03
2023-05-22T14:38:21.226Z,15.17
2023-05-22T14:40:50.637Z,14.30
2023-05-22T14:43:18.432Z,15.50
2023-05-22T14:45:46.229Z,14.80
2023-05-22T14:48:14.397Z,15.33
2023-05-22T14:50:42.251Z,16.27
2023-05-22T14:53:10.891Z,15.27
2023-05-22T14:55:38.874Z,15.60
2023-05-22T14:58:06.786Z,15.90
2023-05-22T15:00:34.889Z,15.83
2023-05-22T15:03:03.401Z,16.03
2023-05-22T15:05:31.471Z,15.57
2023-05-22T15:07:59.311Z,17.13
2023-05-22T15:10:27.137Z,15.33
2023-05-22T15:12:55.224Z,15.60
2023-05-22T15:15:23.380Z,15.77
2023-05-22T15:17:51.179Z,15.37
2023-05-22T15:20:19.289Z,14.67
2023-05-22T15:22:47.357Z,14.90
2023-05-22T15:25:15.716Z,13.10
2023-05-22T15:27:43.854Z,13.10
2023-05-22T15:30:12.675Z,13.10
2023-05-22T15:32:40.628Z,14.37
2023-05-22T15:35:10.475Z,14.03
2023-05-22T15:37:38.544Z,14.87
2023-05-22T15:40:10.460Z,15.23
2023-05-22T15:42:38.506Z,14.93
2023-05-22T15:45:08.748Z,15.97
2023-05-22T15:47:36.592Z,16.00
2023-05-22T15:50:06.949Z,13.53
2023-05-22T15:52:34.859Z,13.73
2023-05-22T15:55:02.695Z,13.70
2023-05-22T15:57:30.532Z,13.83
2023-05-22T15:59:58.410Z,14.07
2023-05-22T16:02:26.247Z,13.90
2023-05-22T16:04:54.437Z,14.30
2023-05-22T16:07:22.320Z,11.87
2023-05-22T16:09:50.181Z,13.47
2023-05-22T16:12:18.772Z,12.77
2023-05-22T16:14:46.715Z,14.50
2023-05-22T16:17:14.733Z,14.13
2023-05-22T16:19:42.636Z,13.80
2023-05-22T16:22:11.214Z,13.87
2023-05-22T16:24:39.132Z,14.67
2023-05-22T16:27:07.269Z,13.73
2023-05-22T16:29:35.316Z,14.10
2023-05-22T16:32:03.907Z,13.63
2023-05-22T16:34:33.327Z,14.43
2023-05-22T16:37:01.838Z,12.53
2023-05-22T16:39:30.083Z,13.63
2023-05-22T16:41:58.031Z,12.70
2023-05-22T16:44:25.919Z,12.93
2023-05-22T16:46:53.954Z,14.03
2023-05-22T16:49:22.039Z,15.47
2023-05-22T16:51:49.812Z,13.43
2023-05-22T16:54:17.784Z,13.97
2023-05-22T16:56:45.863Z,12.47
2023-05-22T16:59:13.817Z,10.70
2023-05-22T17:01:42.973Z,10.03
2023-05-22T17:04:14.041Z,9.30
2023-05-22T17:06:42.753Z,9.23
2023-05-22T17:09:10.750Z,8.30
2023-05-22T17:11:38.805Z,8.30
2023-05-22T17:14:06.915Z,9.77
2023-05-22T17:16:34.932Z,8.87
2023-05-22T17:19:03.261Z,8.80
2023-05-22T17:21:31.292Z,10.17
2023-05-22T17:23:59.144Z,9.23
2023-05-22T17:26:27.173Z,9.53
2023-05-22T17:28:55.058Z,10.60
2023-05-22T17:31:22.947Z,10.47
2023-05-22T17:33:50.770Z,11.87
2023-05-22T17:36:18.686Z,12.53
2023-05-22T17:38:47.070Z,13.03
2023-05-22T17:41:17.799Z,13.90
2023-05-22T17:43:46.079Z,13.50
2023-05-22T17:46:14.749Z,14.83
2023-05-22T17:48:42.640Z,14.67
2023-05-22T17:53:59.535Z,15.70
2023-05-22T17:56:27.731Z,16.77
2023-05-22T17:58:55.927Z,16.43
2023-05-22T18:01:24.036Z,16.57
2023-05-22T18:03:52.755Z,15.63
2023-05-22T18:06:23.976Z,17.73
2023-05-22T18:08:52.740Z,16.37
2023-05-22T18:11:21.143Z,16.50
2023-05-22T18:13:50.184Z,17.77
2023-05-22T18:16:19.151Z,16.90
2023-05-22T18:18:47.442Z,16.97
2023-05-22T18:21:15.588Z,18.73
2023-05-22T18:23:43.595Z,17.83
2023-05-22T18:26:11.549Z,16.70
2023-05-22T18:28:40.983Z,19.93
2023-05-22T18:31:09.059Z,16.93
2023-05-22T18:33:38.678Z,16.13
2023-05-22T18:36:07.468Z,14.90
2023-05-22T18:38:35.873Z,16.03
2023-05-22T18:41:04.383Z,11.00
2023-05-22T18:43:32.516Z,11.20
2023-05-22T18:46:00.793Z,9.40
2023-05-22T18:48:30.277Z,9.27
2023-05-22T18:50:58.386Z,10.17
2023-05-22T18:53:26.685Z,8.93
2023-05-22T18:55:54.880Z,8.10
2023-05-22T18:58:22.924Z,8.47
2023-05-22T19:00:51.476Z,7.90
2023-05-22T19:03:19.391Z,8.03
2023-05-22T19:05:47.641Z,7.47
2023-05-22T19:08:15.896Z,7.03
2023-05-22T19:10:44.049Z,7.20
2023-05-22T19:13:11.914Z,6.97
2023-05-22T19:15:40.060Z,6.83
2023-05-22T19:18:08.153Z,6.80
2023-05-22T19:20:36.286Z,6.70
2023-05-22T19:23:05.959Z,6.20
2023-05-22T19:25:33.882Z,6.97
2023-05-22T19:28:02.124Z,6.50
2023-05-22T19:30:29.983Z,7.00
2023-05-22T19:32:58.007Z,6.97
2023-05-22T19:35:26.291Z,6.93
2023-05-22T19:37:54.545Z,7.37
2023-05-22T19:40:22.739Z,6.70
2023-05-22T19:42:51.297Z,6.27
2023-05-22T19:45:19.369Z,6.57
2023-05-22T19:47:47.561Z,6.33
2023-05-22T19:50:16.771Z,5.87
2023-05-22T19:52:44.972Z,6.03
2023-05-22T19:55:13.178Z,6.30
2023-05-22T19:57:43.671Z,6.10
2023-05-22T20:00:13.920Z,5.97
2023-05-22T20:02:42.136Z,5.80
2023-05-22T20:05:12.269Z,5.87
2023-05-22T20:07:41.421Z,5.43
2023-05-22T20:10:11.362Z,6.57
2023-05-22T20:12:39.615Z,7.07
2023-05-22T20:15:14.038Z,5.60
2023-05-22T20:17:46.810Z,5.80
2023-05-22T20:20:15.019Z,5.87
2023-05-22T20:22:42.977Z,6.03
2023-05-22T20:25:11.140Z,6.37
2023-05-22T20:27:39.365Z,5.83
2023-05-22T20:32:54.686Z,5.00
2023-05-22T20:38:13.763Z,5.23
2023-05-22T20:40:45.800Z,5.63
2023-05-22T20:43:13.807Z,4.90
2023-05-22T20:45:44.940Z,5.23
2023-05-22T20:48:13.273Z,4.90
2023-05-22T20:53:30.251Z,4.90
2023-05-22T20:55:58.337Z,4.97
2023-05-22T20:58:26.741Z,5.03
2023-05-22T21:00:55.495Z,5.40
2023-05-22T21:03:25.699Z,4.70
2023-05-22T21:05:54.912Z,4.70
2023-05-22T21:08:23.264Z,4.77
2023-05-22T21:10:51.570Z,4.20
2023-05-22T21:13:19.758Z,4.40
2023-05-22T21:15:47.730Z,5.20
2023-05-22T21:18:15.692Z,4.73
2023-05-22T21:20:43.785Z,5.40
2023-05-22T21:23:12.028Z,4.77
2023-05-22T21:25:40.036Z,5.10
2023-05-22T21:28:08.206Z,5.17
2023-05-22T21:30:36.315Z,5.13
2023-05-22T21:33:04.624Z,4.90
2023-05-22T21:35:32.536Z,5.37
2023-05-22T21:40:48.254Z,5.20
2023-05-22T21:43:16.155Z,6.10
2023-05-22T21:45:44.217Z,6.07
2023-05-22T21:48:12.287Z,5.77
2023-05-22T21:50:40.834Z,5.90
2023-05-22T21:55:56.428Z,5.73
2023-05-22T21:58:24.376Z,6.40
2023-05-22T22:00:52.239Z,5.30
2023-05-22T22:03:20.239Z,5.90
2023-05-22T22:05:48.963Z,6.00
2023-05-22T22:08:17.066Z,5.97
2023-05-22T22:10:45.524Z,5.97
2023-05-22T22:15:59.864Z,6.20
2023-05-22T22:18:27.794Z,6.27
2023-05-22T22:20:55.638Z,5.73
2023-05-22T22:23:23.509Z,6.03
2023-05-22T22:25:51.674Z,6.37
2023-05-22T22:31:08.664Z,6.20
2023-05-22T22:33:36.890Z,6.37
2023-05-22T22:36:05.726Z,5.73
2023-05-22T22:38:34.620Z,5.50
2023-05-22T22:41:04.085Z,6.63
2023-05-22T22:43:32.201Z,6.50
2023-05-22T22:46:00.264Z,6.60
2023-05-22T22:48:28.523Z,6.90
2023-05-22T22:50:57.501Z,6.83
2023-05-22T22:53:25.424Z,6.70
2023-05-22T22:58:42.943Z,7.50
2023-05-22T23:01:10.781Z,7.03
2023-05-22T23:03:39.011Z,7.20
2023-05-22T23:06:08.194Z,7.47
2023-05-22T23:08:36.038Z,7.53
2023-05-22T23:11:04.277Z,7.20
2023-05-22T23:13:32.167Z,7.00
2023-05-22T23:16:00.205Z,7.10
2023-05-22T23:18:28.077Z,7.97
2023-05-22T23:20:56.008Z,7.53
2023-05-22T23:23:23.817Z,8.57
2023-05-22T23:25:51.402Z,7.87
2023-05-22T23:28:19.678Z,7.63
2023-05-22T23:30:47.641Z,7.60
2023-05-22T23:33:15.645Z,8.80
2023-05-22T23:35:43.549Z,8.93
2023-05-22T23:38:11.455Z,7.93
2023-05-22T23:40:39.439Z,8.63
2023-05-22T23:43:07.283Z,7.97
2023-05-22T23:45:35.543Z,8.33
2023-05-22T23:48:03.555Z,7.20
2023-05-22T23:50:33.471Z,7.50
2023-05-22T23:53:01.229Z,6.57
2023-05-22T23:55:29.236Z,6.10
2023-05-22T23:57:57.117Z,5.97
